Time;durP1;ratioP1;P1;durP2;ratioP2;P2;SDS_P1;SDS_P2;PMS_P1;PMS_P2;Temp;Humidity;BMP_temperature;BMP_pressure;BME280_temperature;BME280_humidity;BME280_pressure;Samples;Min_cycle;Max_cycle;Signal;HPM_P1;HPM_P2
2023/07/03 00:00:37;;;;;;;3.83;3.20;;;23.80;76.20;;;;;;5022611;28;20481;-80
2023/07/03 00:03:04;;;;;;;3.57;3.00;;;23.80;76.30;;;;;;5024577;28;20470;-80
2023/07/03 00:05:31;;;;;;;4.60;3.50;;;23.70;76.30;;;;;;5023618;28;20463;-80
2023/07/03 00:07:58;;;;;;;4.17;3.60;;;23.70;76.20;;;;;;5023512;28;21493;-79
2023/07/03 00:10:25;;;;;;;4.73;3.20;;;23.70;76.20;;;;;;5025550;28;21198;-80
2023/07/03 00:12:51;;;;;;;4.33;3.03;;;23.70;76.30;;;;;;5022428;28;20485;-80
2023/07/03 00:15:20;;;;;;;4.43;3.47;;;23.70;76.20;;;;;;5018986;28;20833;-80
2023/07/03 00:17:46;;;;;;;4.10;3.63;;;23.70;76.30;;;;;;5026221;28;20458;-80
2023/07/03 00:20:14;;;;;;;3.13;2.83;;;23.70;76.30;;;;;;5019892;28;20957;-79
2023/07/03 00:22:42;;;;;;;4.13;3.60;;;23.70;76.40;;;;;;5028625;28;20897;-79
2023/07/03 00:25:09;;;;;;;4.10;3.70;;;23.70;76.40;;;;;;5030460;28;20459;-80
2023/07/03 00:27:36;;;;;;;4.20;3.10;;;23.70;76.40;;;;;;5028582;28;20466;-79
2023/07/03 00:30:05;;;;;;;3.00;2.60;;;23.70;76.50;;;;;;5023759;28;20455;-79
2023/07/03 00:32:34;;;;;;;4.80;3.63;;;23.70;76.50;;;;;;5029600;28;20455;-79
2023/07/03 00:35:01;;;;;;;3.63;3.33;;;23.70;76.50;;;;;;5027327;28;20893;-79
2023/07/03 00:37:28;;;;;;;4.87;2.90;;;23.70;76.50;;;;;;5022601;28;20874;-80
2023/07/03 00:39:55;;;;;;;2.93;2.60;;;23.70;76.60;;;;;;5021111;28;20470;-80
2023/07/03 00:42:24;;;;;;;3.80;2.93;;;23.70;76.60;;;;;;5024001;28;20454;-79
2023/07/03 00:44:51;;;;;;;3.57;3.13;;;23.60;76.50;;;;;;5022831;28;22196;-78
2023/07/03 00:47:18;;;;;;;5.40;3.63;;;23.70;76.70;;;;;;5027669;28;20476;-81
2023/07/03 00:49:46;;;;;;;3.67;2.60;;;23.60;76.60;;;;;;5029415;28;20459;-81
2023/07/03 00:52:14;;;;;;;4.47;3.73;;;23.60;76.60;;;;;;5024457;28;20454;-81
2023/07/03 00:54:41;;;;;;;3.83;3.00;;;23.60;76.60;;;;;;5019603;28;20467;-81
2023/07/03 00:57:12;;;;;;;2.70;2.43;;;23.60;76.60;;;;;;5019529;28;20490;-81
2023/07/03 00:59:38;;;;;;;3.80;3.00;;;23.60;76.60;;;;;;5016775;28;20451;-81
2023/07/03 01:02:11;;;;;;;6.23;3.80;;;23.60;76.60;;;;;;5018073;28;20851;-81
2023/07/03 01:04:45;;;;;;;3.53;3.23;;;23.60;76.70;;;;;;5018121;28;20462;-81
2023/07/03 01:07:15;;;;;;;3.50;3.20;;;23.60;76.70;;;;;;5023291;28;20482;-81
2023/07/03 01:09:46;;;;;;;5.00;3.67;;;23.60;76.80;;;;;;5022271;28;20457;-81
2023/07/03 01:12:14;;;;;;;3.80;3.10;;;23.60;76.80;;;;;;5027755;28;20462;-81
2023/07/03 01:14:42;;;;;;;2.80;2.50;;;23.60;76.80;;;;;;5023423;28;20600;-81
2023/07/03 01:17:11;;;;;;;5.37;3.77;;;23.60;76.80;;;;;;5021592;28;20489;-81
2023/07/03 01:19:41;;;;;;;3.20;2.87;;;23.60;76.80;;;;;;5023143;28;21603;-81
2023/07/03 01:22:15;;;;;;;3.80;3.23;;;23.60;76.90;;;;;;5026374;28;20465;-79
2023/07/03 01:24:47;;;;;;;4.63;3.53;;;23.60;76.90;;;;;;5027467;28;20460;-81
2023/07/03 01:27:17;;;;;;;3.93;3.10;;;23.60;77.00;;;;;;5023133;28;20466;-80
2023/07/03 01:29:46;;;;;;;3.20;2.90;;;23.60;76.90;;;;;;5020015;28;20473;-80
2023/07/03 01:32:14;;;;;;;4.23;2.90;;;23.60;77.00;;;;;;5020716;28;20457;-81
2023/07/03 01:34:45;;;;;;;3.67;3.23;;;23.60;77.00;;;;;;5021338;28;20482;-80
2023/07/03 01:37:13;;;;;;;4.23;3.83;;;23.60;77.00;;;;;;5022838;28;20589;-80
2023/07/03 01:39:41;;;;;;;4.33;3.37;;;23.60;77.00;;;;;;5030594;28;20474;-83
2023/07/03 01:42:10;;;;;;;3.73;3.40;;;23.60;77.00;;;;;;5031197;28;20461;-83
2023/07/03 01:44:37;;;;;;;3.63;2.70;;;23.60;77.10;;;;;;5031200;28;21043;-85
2023/07/03 01:47:06;;;;;;;5.17;3.27;;;23.50;77.00;;;;;;5029047;28;20468;-83
2023/07/03 01:49:34;;;;;;;4.33;3.27;;;23.50;77.00;;;;;;5032145;28;20459;-85
2023/07/03 01:52:07;;;;;;;4.17;3.20;;;23.50;77.10;;;;;;5033457;28;20465;-84
2023/07/03 01:54:43;;;;;;;3.17;2.80;;;23.50;77.00;;;;;;5036753;28;20489;-84
2023/07/03 01:57:15;;;;;;;3.17;2.90;;;23.50;77.10;;;;;;5038393;28;20481;-83
2023/07/03 01:59:43;;;;;;;5.53;3.80;;;23.50;77.10;;;;;;5038507;28;21085;-83
2023/07/03 02:02:15;;;;;;;3.90;3.10;;;23.50;77.10;;;;;;5035087;28;20470;-83
2023/07/03 02:04:43;;;;;;;3.40;3.10;;;23.50;77.10;;;;;;5037120;28;20950;-83
2023/07/03 02:07:12;;;;;;;3.50;2.63;;;23.50;77.20;;;;;;5032137;28;20467;-84
2023/07/03 02:09:40;;;;;;;3.47;2.83;;;23.50;77.20;;;;;;5034964;28;20488;-83
2023/07/03 02:12:09;;;;;;;4.30;2.90;;;23.50;77.20;;;;;;5037407;28;20490;-84
2023/07/03 02:14:38;;;;;;;3.03;2.50;;;23.50;77.20;;;;;;5033268;28;20560;-83
2023/07/03 02:17:06;;;;;;;4.57;3.70;;;23.50;77.20;;;;;;5029986;28;21355;-84
2023/07/03 02:19:33;;;;;;;3.70;3.40;;;23.50;77.20;;;;;;5033612;28;20895;-84
2023/07/03 02:22:00;;;;;;;4.60;3.47;;;23.50;77.20;;;;;;5035004;28;20454;-83
2023/07/03 02:24:27;;;;;;;3.53;3.23;;;23.50;77.30;;;;;;5040849;28;20509;-82
2023/07/03 02:26:54;;;;;;;3.77;3.30;;;23.50;77.30;;;;;;5030967;28;20478;-84
2023/07/03 02:29:21;;;;;;;3.27;2.97;;;23.50;77.30;;;;;;5027496;28;20466;-83
2023/07/03 02:31:49;;;;;;;3.37;2.80;;;23.50;77.30;;;;;;5019708;28;20527;-84
2023/07/03 02:34:16;;;;;;;4.30;3.10;;;23.50;77.40;;;;;;5030456;28;20901;-84
2023/07/03 02:36:46;;;;;;;3.60;3.13;;;23.50;77.30;;;;;;5023201;28;20460;-84
2023/07/03 02:39:14;;;;;;;2.93;2.57;;;23.50;77.40;;;;;;5024894;28;20473;-84
2023/07/03 02:41:41;;;;;;;4.17;3.53;;;23.50;77.40;;;;;;5019698;28;20473;-84
2023/07/03 02:44:07;;;;;;;3.30;2.77;;;23.50;77.40;;;;;;5032098;28;20459;-82
2023/07/03 02:46:34;;;;;;;4.03;2.73;;;23.50;77.40;;;;;;5037271;28;20459;-83
2023/07/03 02:49:03;;;;;;;3.67;3.33;;;23.50;77.40;;;;;;5027250;28;20984;-76
2023/07/03 02:51:30;;;;;;;3.37;2.80;;;23.50;77.40;;;;;;5016177;28;20458;-81
2023/07/03 02:53:56;;;;;;;7.67;3.00;;;23.40;77.30;;;;;;5019030;28;20480;-80
2023/07/03 02:56:23;;;;;;;4.60;3.57;;;23.40;77.30;;;;;;5022759;28;20458;-80
2023/07/03 02:58:50;;;;;;;3.27;2.80;;;23.40;77.30;;;;;;5020909;28;20474;-80
2023/07/03 03:01:17;;;;;;;5.37;3.03;;;23.40;77.30;;;;;;5023422;28;21000;-80
2023/07/03 03:03:44;;;;;;;4.53;3.10;;;23.40;77.50;;;;;;5017935;28;20454;-80
2023/07/03 03:06:12;;;;;;;3.70;2.77;;;23.40;77.40;;;;;;5019652;28;21131;-80
2023/07/03 03:08:39;;;;;;;2.83;2.63;;;23.40;77.40;;;;;;5016214;28;20458;-79
2023/07/03 03:11:07;;;;;;;3.73;3.10;;;23.40;77.40;;;;;;5026951;28;20446;-80
2023/07/03 03:13:34;;;;;;;5.57;3.17;;;23.40;77.30;;;;;;5026427;28;20506;-80
2023/07/03 03:16:01;;;;;;;3.90;2.77;;;23.40;77.50;;;;;;5025609;28;20459;-80
2023/07/03 03:18:28;;;;;;;7.03;2.90;;;23.40;77.40;;;;;;5022497;28;20465;-78
2023/07/03 03:20:54;;;;;;;3.77;3.37;;;23.40;77.50;;;;;;5020991;28;20470;-78
2023/07/03 03:23:23;;;;;;;4.17;3.17;;;23.40;77.50;;;;;;5018769;28;20465;-81
2023/07/03 03:25:50;;;;;;;3.63;3.13;;;23.40;77.50;;;;;;5020317;28;20573;-80
2023/07/03 03:28:16;;;;;;;5.73;3.30;;;23.40;77.60;;;;;;5021316;28;20455;-81
2023/07/03 03:30:43;;;;;;;4.20;3.07;;;23.40;78.30;;;;;;5020903;28;20465;-80
2023/07/03 03:33:10;;;;;;;3.50;2.60;;;23.40;77.60;;;;;;5021725;28;20469;-81
2023/07/03 03:35:37;;;;;;;4.33;3.40;;;23.40;77.50;;;;;;5020221;28;20479;-80
2023/07/03 03:38:03;;;;;;;3.90;2.80;;;23.40;77.50;;;;;;5023659;28;20557;-80
2023/07/03 03:40:31;;;;;;;2.63;2.43;;;23.40;77.60;;;;;;5020398;28;21256;-80
2023/07/03 03:42:58;;;;;;;7.33;2.90;;;23.40;77.60;;;;;;5019554;28;20471;-81
2023/07/03 03:45:25;;;;;;;3.37;2.90;;;23.40;77.60;;;;;;5016453;28;20458;-81
2023/07/03 03:47:52;;;;;;;3.23;2.80;;;23.40;77.60;;;;;;5019035;28;21143;-80
2023/07/03 03:50:19;;;;;;;3.20;2.37;;;23.40;77.60;;;;;;5020945;28;20461;-81
2023/07/03 03:52:46;;;;;;;3.90;2.97;;;23.40;77.60;;;;;;5020779;28;20470;-81
2023/07/03 03:55:12;;;;;;;3.20;2.87;;;23.40;77.50;;;;;;5025593;28;20847;-81
2023/07/03 03:57:41;;;;;;;3.90;3.47;;;23.40;77.50;;;;;;5025327;28;20486;-80
2023/07/03 04:00:15;;;;;;;3.63;3.33;;;23.40;77.60;;;;;;5022928;28;20471;-81
2023/07/03 04:02:42;;;;;;;2.73;2.53;;;23.40;77.50;;;;;;5029295;28;20893;-81
2023/07/03 04:05:09;;;;;;;2.57;2.37;;;23.40;77.60;;;;;;5029318;28;20463;-80
2023/07/03 04:07:35;;;;;;;3.57;2.80;;;23.40;77.50;;;;;;5021596;28;20458;-79
2023/07/03 04:10:03;;;;;;;3.73;3.20;;;23.40;77.70;;;;;;5027640;28;20462;-79
2023/07/03 04:12:30;;;;;;;3.50;3.20;;;23.40;77.60;;;;;;5030481;28;20533;-80
2023/07/03 04:14:58;;;;;;;3.03;2.73;;;23.40;77.60;;;;;;5022388;28;20889;-79
2023/07/03 04:17:25;;;;;;;3.50;2.97;;;23.40;77.60;;;;;;5023987;28;20480;-81
2023/07/03 04:19:52;;;;;;;4.27;3.27;;;23.40;77.70;;;;;;5026251;28;20458;-80
2023/07/03 04:22:18;;;;;;;3.60;3.03;;;23.40;77.60;;;;;;5027990;28;20458;-80
2023/07/03 04:24:45;;;;;;;3.40;3.03;;;23.30;77.60;;;;;;5030460;28;20447;-80
2023/07/03 04:27:14;;;;;;;3.13;2.30;;;23.30;77.60;;;;;;5029030;28;20467;-80
2023/07/03 04:29:41;;;;;;;3.17;2.50;;;23.40;77.70;;;;;;5028785;28;20450;-80
2023/07/03 04:32:09;;;;;;;4.00;2.90;;;23.30;77.60;;;;;;5027427;28;20989;-80
2023/07/03 04:34:36;;;;;;;3.10;2.53;;;23.30;77.70;;;;;;5029190;28;20576;-80
2023/07/03 04:37:04;;;;;;;2.77;2.57;;;23.30;77.70;;;;;;5020136;28;20520;-79
2023/07/03 04:39:31;;;;;;;3.30;3.00;;;23.30;77.70;;;;;;5027054;28;20520;-79
2023/07/03 04:42:00;;;;;;;3.60;2.83;;;23.30;77.70;;;;;;5025210;28;20461;-80
2023/07/03 04:44:27;;;;;;;3.40;2.83;;;23.30;77.80;;;;;;5024292;28;20574;-79
2023/07/03 04:46:55;;;;;;;3.97;2.50;;;23.30;77.70;;;;;;5020774;28;20470;-79
2023/07/03 04:49:26;;;;;;;4.30;2.67;;;23.30;77.70;;;;;;5023165;28;20494;-80
2023/07/03 04:51:54;;;;;;;2.87;2.37;;;23.30;77.80;;;;;;5017939;28;21402;-80
2023/07/03 04:54:21;;;;;;;2.40;2.07;;;23.30;77.70;;;;;;5025687;28;20478;-79
2023/07/03 04:56:49;;;;;;;3.00;2.20;;;23.30;77.80;;;;;;5018516;28;20554;-80
2023/07/03 04:59:16;;;;;;;4.80;3.00;;;23.30;77.80;;;;;;5020528;28;20463;-80
2023/07/03 05:01:43;;;;;;;6.30;2.30;;;23.30;77.80;;;;;;5021440;28;20472;-80
2023/07/03 05:04:10;;;;;;;4.57;2.97;;;23.30;77.80;;;;;;5026723;28;21109;-80
2023/07/03 05:06:40;;;;;;;4.03;3.20;;;23.30;77.80;;;;;;5019904;28;20929;-80
2023/07/03 05:09:08;;;;;;;3.47;3.10;;;23.30;77.80;;;;;;5019459;28;20479;-80
2023/07/03 05:11:35;;;;;;;2.80;2.47;;;23.30;77.80;;;;;;5023949;28;20956;-80
2023/07/03 05:14:02;;;;;;;3.30;2.63;;;23.30;77.80;;;;;;5023634;28;21407;-80
2023/07/03 05:16:29;;;;;;;2.90;2.63;;;23.30;77.90;;;;;;5019112;28;20814;-80
2023/07/03 05:18:56;;;;;;;3.30;2.40;;;23.30;78.70;;;;;;5020970;28;20479;-80
2023/07/03 05:21:22;;;;;;;3.70;2.87;;;23.30;77.90;;;;;;5023642;28;21017;-80
2023/07/03 05:23:51;;;;;;;3.87;2.97;;;23.30;77.90;;;;;;5023479;28;20961;-79
2023/07/03 05:26:17;;;;;;;5.10;2.73;;;23.30;77.90;;;;;;5020540;28;20466;-79
2023/07/03 05:28:44;;;;;;;2.80;2.40;;;23.30;77.90;;;;;;5028889;28;20469;-80
2023/07/03 05:31:11;;;;;;;3.97;3.20;;;23.30;77.90;;;;;;5024265;28;20898;-80
2023/07/03 05:33:38;;;;;;;3.80;3.13;;;23.30;77.90;;;;;;5021632;28;21217;-79
2023/07/03 05:36:06;;;;;;;3.07;2.30;;;23.30;77.90;;;;;;5019797;28;20487;-78
2023/07/03 05:38:34;;;;;;;4.70;2.70;;;23.30;78.00;;;;;;5021175;28;20463;-80
2023/07/03 05:41:02;;;;;;;4.13;3.27;;;23.30;77.90;;;;;;5020958;28;20469;-81
2023/07/03 05:43:29;;;;;;;3.13;2.70;;;23.20;77.80;;;;;;5021034;28;20461;-79
2023/07/03 05:45:56;;;;;;;2.90;2.03;;;23.30;77.90;;;;;;5015380;28;20461;-80
2023/07/03 05:48:24;;;;;;;2.80;2.40;;;23.20;77.90;;;;;;5020054;28;20455;-79
2023/07/03 05:50:51;;;;;;;2.60;2.40;;;23.20;77.90;;;;;;5020338;28;21568;-79
2023/07/03 05:53:17;;;;;;;3.73;2.80;;;23.20;77.90;;;;;;5022630;28;20461;-79
2023/07/03 05:55:52;;;;;;;2.53;2.23;;;23.20;77.90;;;;;;5017122;28;20481;-80
2023/07/03 05:58:22;;;;;;;4.43;3.27;;;23.30;78.10;;;;;;5018312;28;20513;-80
2023/07/03 06:00:49;;;;;;;3.73;2.50;;;23.20;78.10;;;;;;5015843;28;20468;-80
2023/07/03 06:03:15;;;;;;;2.87;2.50;;;23.20;78.10;;;;;;5019923;28;20469;-80
2023/07/03 06:05:43;;;;;;;3.60;2.80;;;23.20;78.20;;;;;;5026421;28;20451;-80
2023/07/03 06:08:10;;;;;;;3.00;2.70;;;23.20;78.20;;;;;;5022363;28;20458;-79
2023/07/03 06:10:37;;;;;;;4.00;2.87;;;23.20;78.30;;;;;;5023874;28;20466;-80
2023/07/03 06:13:04;;;;;;;4.70;2.77;;;23.20;78.40;;;;;;5025240;28;21400;-79
2023/07/03 06:15:35;;;;;;;4.10;2.33;;;23.20;78.50;;;;;;5014113;28;21083;-78
2023/07/03 06:18:02;;;;;;;3.07;2.27;;;23.20;78.60;;;;;;5020002;28;20463;-80
2023/07/03 06:20:29;;;;;;;5.00;2.77;;;23.20;78.70;;;;;;5018209;28;21038;-80
2023/07/03 06:22:56;;;;;;;3.50;2.63;;;23.30;78.90;;;;;;5028880;28;20977;-79
2023/07/03 06:25:23;;;;;;;3.50;2.67;;;23.20;78.70;;;;;;5030061;28;20822;-79
2023/07/03 06:27:50;;;;;;;3.37;2.70;;;23.20;78.80;;;;;;5030321;28;20455;-80
2023/07/03 06:30:17;;;;;;;4.07;2.90;;;23.20;78.80;;;;;;5025921;28;21017;-79
2023/07/03 06:32:45;;;;;;;2.57;2.30;;;23.20;78.90;;;;;;5021923;28;20458;-80
2023/07/03 06:35:12;;;;;;;2.90;2.70;;;23.20;78.90;;;;;;5028478;28;20996;-80
2023/07/03 06:37:39;;;;;;;4.40;2.73;;;23.20;78.90;;;;;;5018613;28;20476;-79
2023/07/03 06:40:10;;;;;;;3.53;2.33;;;23.20;78.90;;;;;;5021936;28;21324;-80
2023/07/03 06:42:37;;;;;;;5.67;2.40;;;23.20;78.90;;;;;;5026275;28;20469;-80
2023/07/03 06:45:05;;;;;;;3.40;2.20;;;23.20;79.00;;;;;;5028448;28;20471;-80
2023/07/03 06:47:32;;;;;;;4.37;2.60;;;23.20;78.90;;;;;;5030389;28;20469;-80
2023/07/03 06:50:00;;;;;;;2.40;2.20;;;23.20;79.00;;;;;;5031494;28;20434;-79
2023/07/03 06:52:26;;;;;;;5.30;3.03;;;23.20;79.10;;;;;;5031208;28;20473;-80
2023/07/03 06:54:53;;;;;;;3.37;2.43;;;23.20;79.10;;;;;;5029256;28;20932;-80
2023/07/03 06:57:20;;;;;;;2.97;2.67;;;23.20;79.10;;;;;;5030857;28;20473;-81
2023/07/03 06:59:47;;;;;;;4.13;2.77;;;23.20;79.10;;;;;;5029014;28;20464;-80
2023/07/03 07:02:14;;;;;;;3.43;2.20;;;23.20;79.10;;;;;;5029867;28;20989;-79
2023/07/03 07:04:42;;;;;;;2.93;2.60;;;23.20;79.10;;;;;;5029091;28;20449;-81
2023/07/03 07:07:10;;;;;;;3.00;2.20;;;23.30;79.30;;;;;;5030583;28;20538;-81
2023/07/03 07:09:38;;;;;;;4.00;2.60;;;23.20;79.30;;;;;;5030469;28;20462;-81
2023/07/03 07:12:06;;;;;;;2.73;2.20;;;23.20;79.30;;;;;;5031490;28;20504;-81
2023/07/03 07:14:33;;;;;;;4.77;2.87;;;23.20;79.30;;;;;;5030310;28;20459;-81
2023/07/03 07:17:00;;;;;;;3.37;2.40;;;23.30;79.50;;;;;;5031114;28;20466;-80
2023/07/03 07:19:26;;;;;;;4.57;3.10;;;23.30;79.50;;;;;;5030379;28;20473;-80
2023/07/03 07:21:53;;;;;;;5.67;2.50;;;23.20;79.40;;;;;;5027012;28;20449;-81
2023/07/03 07:24:23;;;;;;;9.70;3.67;;;23.20;79.50;;;;;;5031096;28;20463;-81
2023/07/03 07:26:54;;;;;;;9.13;4.20;;;23.20;78.20;;;;;;5029371;28;20447;-81
2023/07/03 07:29:22;;;;;;;11.63;4.30;;;23.20;76.90;;;;;;5031322;28;20454;-79
2023/07/03 07:31:49;;;;;;;10.40;4.00;;;23.10;76.40;;;;;;5025805;28;20469;-80
2023/07/03 07:34:16;;;;;;;12.17;4.10;;;23.10;75.90;;;;;;5029768;28;20450;-81
2023/07/03 07:36:43;;;;;;;12.37;4.80;;;23.10;76.20;;;;;;5028292;28;20474;-80
2023/07/03 07:39:09;;;;;;;7.80;4.13;;;23.10;76.50;;;;;;5029353;28;20459;-81
2023/07/03 07:41:38;;;;;;;9.20;4.03;;;23.10;76.70;;;;;;5028558;28;20465;-81
2023/07/03 07:44:06;;;;;;;7.73;3.47;;;23.10;76.80;;;;;;5027965;28;20980;-82
2023/07/03 07:46:35;;;;;;;9.10;4.13;;;23.10;76.90;;;;;;5027303;28;20463;-81
2023/07/03 07:49:02;;;;;;;11.87;4.03;;;23.10;77.10;;;;;;5027288;28;20466;-80
2023/07/03 07:51:30;;;;;;;12.30;4.10;;;23.10;77.30;;;;;;5025939;28;20454;-81
2023/07/03 07:53:58;;;;;;;6.80;3.77;;;23.10;77.40;;;;;;5026348;28;20458;-80
2023/07/03 07:56:26;;;;;;;7.40;3.13;;;23.10;77.40;;;;;;5023331;28;20497;-80
2023/07/03 07:58:57;;;;;;;10.83;3.77;;;23.10;77.60;;;;;;5024003;28;20465;-80
2023/07/03 08:01:24;;;;;;;9.07;3.00;;;23.20;77.40;;;;;;5025570;28;20508;-80
2023/07/03 08:03:52;;;;;;;9.33;3.90;;;23.20;77.10;;;;;;5025242;28;20974;-80
2023/07/03 08:06:19;;;;;;;7.20;3.40;;;23.10;77.00;;;;;;5024547;28;20459;-79
2023/07/03 08:08:46;;;;;;;6.07;3.53;;;23.20;77.30;;;;;;5023672;28;20913;-80
2023/07/03 08:11:13;;;;;;;9.13;2.70;;;23.20;77.50;;;;;;5025964;28;20929;-79
2023/07/03 08:13:41;;;;;;;7.38;3.60;;;23.20;77.50;;;;;;5022175;28;20523;-80
2023/07/03 08:16:11;;;;;;;5.83;2.70;;;23.20;77.50;;;;;;5025737;28;20606;-82
2023/07/03 08:18:38;;;;;;;5.80;2.73;;;23.20;77.70;;;;;;5026018;28;21136;-82
2023/07/03 08:21:05;;;;;;;5.50;2.80;;;23.20;77.50;;;;;;5027976;28;20462;-83
2023/07/03 08:23:32;;;;;;;7.70;3.83;;;23.20;77.50;;;;;;5026635;28;21498;-84
2023/07/03 08:26:00;;;;;;;6.73;3.60;;;23.20;77.30;;;;;;5027496;28;20442;-84
2023/07/03 08:28:28;;;;;;;7.60;3.37;;;23.20;77.20;;;;;;5027939;28;20550;-84
2023/07/03 08:30:57;;;;;;;6.50;4.00;;;23.20;77.30;;;;;;5022950;28;20466;-83
2023/07/03 08:33:25;;;;;;;7.10;2.73;;;23.20;77.40;;;;;;5028935;28;20544;-83
2023/07/03 08:35:53;;;;;;;7.67;3.53;;;23.20;77.50;;;;;;5025308;28;20478;-84
2023/07/03 08:38:20;;;;;;;7.70;4.07;;;23.20;77.60;;;;;;5025685;28;20462;-81
2023/07/03 08:40:47;;;;;;;7.13;3.30;;;23.20;77.80;;;;;;5029356;28;20470;-82
2023/07/03 08:43:20;;;;;;;6.47;3.33;;;23.20;77.80;;;;;;5028029;28;21015;-84
2023/07/03 08:45:49;;;;;;;12.40;5.00;;;23.20;77.90;;;;;;5025941;28;20531;-83
2023/07/03 08:48:19;;;;;;;10.40;4.20;;;23.20;77.70;;;;;;5029584;28;20954;-82
2023/07/03 08:50:49;;;;;;;9.93;3.53;;;23.20;77.60;;;;;;5027677;28;20561;-83
2023/07/03 08:53:19;;;;;;;8.73;3.23;;;23.20;77.60;;;;;;5029730;28;20459;-82
2023/07/03 08:55:52;;;;;;;6.57;3.60;;;23.20;77.80;;;;;;5028661;28;20478;-80
2023/07/03 08:58:19;;;;;;;6.87;3.20;;;23.20;77.80;;;;;;5030307;28;20494;-80
2023/07/03 09:00:53;;;;;;;7.67;3.40;;;23.20;77.80;;;;;;5028187;28;20494;-80
2023/07/03 09:03:28;;;;;;;12.47;4.40;;;23.20;77.90;;;;;;5020394;28;21000;-80
2023/07/03 09:06:07;;;;;;;11.20;4.07;;;23.10;77.30;;;;;;5023647;28;20484;-80
2023/07/03 09:08:41;;;;;;;7.57;3.40;;;23.10;77.00;;;;;;5026242;28;21144;-80
2023/07/03 09:11:10;;;;;;;6.40;2.83;;;23.10;77.10;;;;;;5028424;28;20556;-80
2023/07/03 09:13:41;;;;;;;7.33;3.83;;;23.10;77.20;;;;;;5021069;28;20466;-81
2023/07/03 09:16:13;;;;;;;12.07;3.73;;;23.10;77.10;;;;;;5023882;28;20506;-80
2023/07/03 09:18:46;;;;;;;10.83;3.33;;;23.10;76.80;;;;;;5025911;28;20454;-80
2023/07/03 09:21:14;;;;;;;7.20;4.23;;;23.10;76.50;;;;;;5024637;28;21056;-81
2023/07/03 09:23:47;;;;;;;7.13;3.63;;;23.10;76.50;;;;;;5027317;28;20462;-80
2023/07/03 09:26:20;;;;;;;8.93;3.50;;;23.10;76.40;;;;;;5024541;28;20830;-81
2023/07/03 09:28:49;;;;;;;9.90;3.43;;;23.10;76.30;;;;;;5023959;28;20466;-79
2023/07/03 09:31:17;;;;;;;10.97;3.90;;;23.10;76.30;;;;;;5025488;28;20493;-81
2023/07/03 09:33:44;;;;;;;10.50;4.43;;;23.10;76.20;;;;;;5024843;28;20463;-81
2023/07/03 09:36:25;;;;;;;7.27;3.80;;;23.10;76.00;;;;;;5024207;28;20538;-81
2023/07/03 09:38:52;;;;;;;7.63;3.67;;;23.10;76.00;;;;;;5028743;28;20434;-81
2023/07/03 09:41:27;;;;;;;10.80;4.17;;;23.10;75.90;;;;;;5027280;28;20539;-80
2023/07/03 09:43:55;;;;;;;8.20;3.90;;;23.10;75.90;;;;;;5023626;28;20461;-81
2023/07/03 09:46:22;;;;;;;10.27;4.00;;;23.10;75.90;;;;;;5027308;28;20540;-81
2023/07/03 09:48:50;;;;;;;10.73;3.60;;;23.00;75.80;;;;;;5027298;28;20469;-80
2023/07/03 09:51:26;;;;;;;10.87;4.10;;;23.00;75.80;;;;;;5028080;28;20453;-80
2023/07/03 09:53:56;;;;;;;10.93;4.30;;;23.00;75.60;;;;;;5023385;28;20512;-80
2023/07/03 09:56:25;;;;;;;8.10;3.60;;;23.00;75.70;;;;;;5024746;28;20474;-81
2023/07/03 09:58:54;;;;;;;10.93;3.33;;;23.00;75.70;;;;;;5022662;28;20469;-81
2023/07/03 10:01:23;;;;;;;15.67;4.17;;;23.00;75.70;;;;;;5028880;28;21031;-81
2023/07/03 10:04:01;;;;;;;7.27;3.53;;;23.00;75.70;;;;;;5028087;28;20455;-81
2023/07/03 10:06:30;;;;;;;5.13;3.10;;;23.00;75.70;;;;;;5023643;28;20458;-81
2023/07/03 10:09:01;;;;;;;6.53;3.10;;;23.00;75.70;;;;;;5026468;28;20458;-80
2023/07/03 10:11:35;;;;;;;8.77;3.30;;;23.00;75.90;;;;;;5027464;28;20466;-80
2023/07/03 10:14:03;;;;;;;13.83;4.47;;;23.00;75.70;;;;;;5025540;28;20489;-83
2023/07/03 10:16:31;;;;;;;8.87;3.90;;;23.00;75.60;;;;;;5018495;28;20478;-82
2023/07/03 10:18:59;;;;;;;6.90;4.13;;;23.00;75.50;;;;;;5028140;28;20849;-83
2023/07/03 10:21:27;;;;;;;11.33;4.40;;;23.00;75.40;;;;;;5031525;28;20465;-82
2023/07/03 10:23:58;;;;;;;10.23;3.37;;;23.00;75.40;;;;;;5030746;28;20462;-82
2023/07/03 10:26:30;;;;;;;6.80;2.90;;;23.00;75.20;;;;;;5027520;28;20472;-81
2023/07/03 10:29:01;;;;;;;6.17;3.60;;;23.00;75.20;;;;;;5029147;28;20764;-83
2023/07/03 10:31:34;;;;;;;5.17;2.50;;;23.00;75.40;;;;;;5026348;28;20830;-82
2023/07/03 10:34:07;;;;;;;8.47;3.60;;;23.00;75.30;;;;;;5033005;28;20474;-82
2023/07/03 10:36:35;;;;;;;9.33;4.00;;;23.00;75.30;;;;;;5032432;28;21110;-83
2023/07/03 10:39:07;;;;;;;7.73;3.53;;;23.00;75.10;;;;;;5032624;28;20473;-83
2023/07/03 10:41:42;;;;;;;10.90;5.10;;;23.00;75.00;;;;;;5029670;28;20480;-83
2023/07/03 10:44:13;;;;;;;6.97;3.90;;;23.00;74.80;;;;;;5030431;28;20568;-81
2023/07/03 10:46:45;;;;;;;14.47;3.70;;;23.00;74.70;;;;;;5027240;28;20450;-83
2023/07/03 10:49:24;;;;;;;9.23;3.60;;;23.00;74.60;;;;;;5032284;28;20465;-83
2023/07/03 10:52:00;;;;;;;9.83;4.27;;;23.00;74.50;;;;;;5033151;28;20826;-83
2023/07/03 10:54:33;;;;;;;7.13;4.00;;;23.00;74.20;;;;;;5033368;28;20549;-82
2023/07/03 10:57:04;;;;;;;8.00;3.27;;;23.00;74.20;;;;;;5031850;28;20499;-82
2023/07/03 10:59:33;;;;;;;9.03;3.07;;;23.00;74.30;;;;;;5031172;28;20461;-82
2023/07/03 11:02:12;;;;;;;6.20;2.87;;;23.00;74.30;;;;;;5032137;28;20548;-81
2023/07/03 11:04:50;;;;;;;9.53;4.30;;;23.00;73.90;;;;;;5033262;28;20496;-82
2023/07/03 11:07:25;;;;;;;8.43;3.37;;;23.00;73.00;;;;;;5032382;28;20879;-82
2023/07/03 11:09:59;;;;;;;9.50;3.50;;;22.90;70.70;;;;;;5025888;28;20475;-81
2023/07/03 11:12:33;;;;;;;6.00;3.63;;;22.80;68.70;;;;;;5026989;28;20834;-82
2023/07/03 11:15:13;;;;;;;8.40;3.20;;;22.80;67.30;;;;;;5024240;28;20463;-81
2023/07/03 11:17:50;;;;;;;7.80;2.70;;;22.70;66.60;;;;;;5024628;28;20481;-81
2023/07/03 11:20:25;;;;;;;7.17;3.00;;;22.70;66.70;;;;;;5026187;28;20888;-82
2023/07/03 11:23:00;;;;;;;10.90;2.90;;;22.70;66.50;;;;;;5032319;28;20606;-80
2023/07/03 11:25:33;;;;;;;10.73;3.33;;;22.70;66.60;;;;;;5028999;28;21185;-81
2023/07/03 11:28:08;;;;;;;6.40;3.30;;;22.70;66.60;;;;;;5031218;28;20455;-80
2023/07/03 11:30:36;;;;;;;7.00;2.90;;;22.70;66.40;;;;;;5027692;28;20961;-83
2023/07/03 11:33:05;;;;;;;10.97;3.53;;;22.70;66.80;;;;;;5029690;28;20457;-82
2023/07/03 11:35:32;;;;;;;6.57;3.40;;;22.70;66.90;;;;;;5030283;28;20465;-82
2023/07/03 11:38:03;;;;;;;4.93;2.90;;;22.70;67.10;;;;;;5031055;28;20925;-82
2023/07/03 11:40:35;;;;;;;7.90;3.07;;;22.70;67.20;;;;;;5030274;28;20472;-81
2023/07/03 11:43:22;;;;;;;6.50;2.90;;;22.70;67.90;;;;;;5032010;28;20581;-82
2023/07/03 11:46:04;;;;;;;5.10;3.10;;;22.80;67.90;;;;;;5027755;28;20454;-82
2023/07/03 11:48:34;;;;;;;8.43;3.23;;;22.80;68.40;;;;;;5031542;28;21020;-82
2023/07/03 11:51:05;;;;;;;13.93;3.37;;;22.80;68.90;;;;;;5030083;28;20520;-81
2023/07/03 11:53:34;;;;;;;5.00;3.13;;;22.80;68.90;;;;;;5032815;28;20462;-81
2023/07/03 11:56:04;;;;;;;10.30;3.20;;;22.80;69.20;;;;;;5030137;28;20962;-81
2023/07/03 11:58:33;;;;;;;7.53;3.00;;;22.80;69.20;;;;;;5030253;28;20479;-81
2023/07/03 12:01:26;;;;;;;5.63;3.20;;;22.80;69.50;;;;;;5027065;28;20873;-81
2023/07/03 12:03:55;;;;;;;5.10;2.87;;;22.80;69.50;;;;;;5031591;28;20458;-81
2023/07/03 12:06:50;;;;;;;8.13;2.80;;;22.80;69.80;;;;;;5030651;28;20496;-83
2023/07/03 12:09:26;;;;;;;5.83;2.70;;;22.80;70.00;;;;;;4981766;28;20461;-82
2023/07/03 12:12:14;;;;;;;8.87;4.00;;;22.80;70.00;;;;;;5019925;28;20458;-83
2023/07/03 12:14:57;;;;;;;6.37;3.03;;;22.80;70.10;;;;;;5026960;28;20458;-81
2023/07/03 12:17:27;;;;;;;5.80;2.77;;;22.80;70.30;;;;;;5010551;28;20870;-82
2023/07/03 12:19:56;;;;;;;5.97;3.03;;;22.80;70.50;;;;;;5020427;28;20457;-82
2023/07/03 12:22:27;;;;;;;7.80;2.27;;;22.80;70.50;;;;;;5022280;28;21200;-84
2023/07/03 12:25:02;;;;;;;8.27;3.50;;;22.80;70.50;;;;;;5030227;28;20458;-84
2023/07/03 12:27:30;;;;;;;5.00;2.90;;;22.80;70.10;;;;;;5027098;28;20679;-86
2023/07/03 12:29:57;;;;;;;9.90;2.60;;;22.80;70.10;;;;;;5029516;28;21143;-85
2023/07/03 12:32:27;;;;;;;4.63;2.60;;;22.80;69.90;;;;;;5020160;28;21174;-87
2023/07/03 12:35:09;;;;;;;7.63;3.47;;;22.80;70.10;;;;;;5028569;28;20482;-89
2023/07/03 12:37:35;;;;;;;6.17;2.70;;;22.80;70.10;;;;;;5031580;28;21142;-87
2023/07/03 12:40:04;;;;;;;8.80;3.13;;;22.90;70.30;;;;;;5031368;28;20558;-86
2023/07/03 12:42:32;;;;;;;6.30;2.93;;;22.90;70.20;;;;;;5027944;28;20462;-84
2023/07/03 12:45:12;;;;;;;7.53;2.90;;;22.90;69.90;;;;;;5031798;28;20462;-79
2023/07/03 12:47:39;;;;;;;5.67;4.10;;;22.90;69.50;;;;;;5019351;28;20572;-78
2023/07/03 12:50:07;;;;;;;4.60;3.33;;;22.90;69.40;;;;;;5023681;28;20455;-78
2023/07/03 12:52:35;;;;;;;9.03;3.30;;;22.90;69.20;;;;;;5021914;28;21419;-79
2023/07/03 12:55:04;;;;;;;5.57;2.47;;;22.90;68.90;;;;;;5023950;28;20463;-78